Impacts TAF Board INFO
FOR SITUATIONAL AWARENESS. NOT TO BE USED FOR FLIGHT PLANNING PURPOSES.
IDs:

KLAS - Las Vegas/McCarran I, NV, US

Issued at 1128 UTC 19 Jun 2018
Updated at 1236 UTC 19 Jun 2018
Potential Impact None Slight Moderate High
Time1156Z 19/13Z 19/14Z 19/15Z 19/16Z 19/17Z 19/18Z 19/19Z 19/20Z 19/21Z 19/22Z 19/23Z 20/00Z 20/01Z>>
Type OBS PRVL PRVL PRVL PRVL PRVL PRVL PRVL PRVL PRVL PRVL PRVL PRVL PRVL
VIS 10 >6 >6 >6 >6 >6 >6 >6 >6 >6 >6 >6 >6 >6
CIG -- -- -- -- -- -- -- -- -- -- -- -- -- --
Cover CLR SKC SKC SKC SCT SCT SCT SCT SCT SCT SCT SCT SCT SCT
FltCat VFR VFR VFR VFR VFR VFR VFR VFR VFR VFR VFR VFR VFR VFR
WX -- -- -- -- -- -- -- -- -- -- -- -- -- --
WDir VRB 190 190 190 VRB VRB VRB VRB VRB 110 110 110 110 110
WSpd 0 8 8 8 5 5 5 5 5 6 6 6 6 6
WGst -- -- -- -- -- -- -- -- -- -- -- -- -- --

Raw TAF
KLAS 191128Z 1912/2018 19008KT P6SM SKC
  FM191600 VRB05KT P6SM SCT250
  FM192100 11006KT P6SM SCT250
  FM200400 22007KT P6SM SKC
  FM201600 VRB05KT P6SM SKC


Raw METAR
KLAS 191156Z 00000KT 10SM CLR 24/M04 A2990 RMK AO2 SLP097 T02391044 10289 20233 53007
KLAS 191056Z 00000KT 10SM CLR 24/M03 A2988 RMK AO2 SLP093 T02391033
KLAS 190956Z 21004KT 10SM CLR 25/M04 A2988 RMK AO2 SLP090 T02501039

METAR Board
Radar Display
Forecast Discussion

FOR SITUATIONAL AWARENESS. NOT TO BE USED FOR FLIGHT PLANNING PURPOSES.